EST,Max TemperatureF,Mean TemperatureF,Min TemperatureF,Max Dew PointF,MeanDew PointF,Min DewpointF,Max Humidity, Mean Humidity, Min Humidity, Max Sea Level PressureIn, Mean Sea Level PressureIn, Min Sea Level PressureIn, Max VisibilityMiles, Mean VisibilityMiles, Min VisibilityMiles, Max Wind SpeedMPH, Mean Wind SpeedMPH, Max Gust SpeedMPH,PrecipitationIn, CloudCover, Events, WindDirDegrees
2012-11-1,60,52,44,42,39,37,79,62,44,29.86,29.79,29.72,10,10,10,16,9,17,0.00,1,,283
2012-11-2,64,54,43,46,40,35,86,63,41,29.96,29.89,29.80,10,10,10,21,8,29,0.00,1,,277
2012-11-3,59,49,41,42,38,34,97,71,44,30.09,30.03,29.96,10,10,10,10,4,,0.00,0,,332
2012-11-4,73,56,39,64,47,39,97,80,63,30.10,29.99,29.90,10,10,7,18,6,26,0.07,3,Rain,36
2012-11-5,54,46,39,47,40,36,96,77,51,30.12,30.03,29.96,10,10,10,16,9,25,0.00,3,,18
2012-11-6,50,46,42,48,44,38,100,91,79,30.08,29.94,29.82,10,9,4,18,11,26,0.30,5,Rain,7
2012-11-7,48,44,39,46,43,38,100,94,86,29.90,29.82,29.78,10,9,2,20,15,24,0.02,7,Rain,342
2012-11-8,57,47,37,37,34,29,96,65,39,30.06,29.99,29.90,10,10,10,14,10,,0.00,0,,305
2012-11-9,60,48,37,40,33,28,93,63,35,30.28,30.21,30.09,10,10,7,13,6,,0.00,0,,346
2012-11-10,63,50,37,46,40,33,100,78,33,30.42,30.36,30.28,10,9,6,7,1,,0.00,0,,185
2012-11-11,71,57,43,56,49,42,100,85,51,30.50,30.45,30.41,10,8,1,7,2,,0.00,0,,79
2012-11-12,75,64,52,64,60,52,100,90,66,30.44,30.33,30.24,10,8,2,13,4,,0.18,4,Rain,129
2012-11-13,71,58,46,66,58,45,100,97,83,30.33,30.23,30.19,10,6,1,20,5,29,0.00,4,Rain,35
2012-11-14,52,49,46,46,44,41,93,84,77,30.38,30.34,30.30,10,10,8,21,17,31,0.00,7,,18
2012-11-15,57,52,46,52,47,41,96,86,75,30.29,30.20,30.16,10,10,6,17,11,28,0.07,7,Rain,16
2012-11-16,57,51,44,50,45,39,100,84,60,30.33,30.24,30.17,10,10,8,17,12,23,0.05,5,Rain,7
2012-11-17,57,50,42,50,46,40,93,86,70,30.37,30.34,30.31,10,10,10,22,13,32,0.00,3,,17
2012-11-18,57,55,53,55,54,50,100,94,84,30.31,30.24,30.17,10,7,2,25,20,39,0.39,8,Rain,23
2012-11-19,55,53,50,55,53,50,100,98,93,30.16,30.10,30.06,10,8,5,25,21,38,0.00,8,Rain,9
2012-11-20,55,52,48,52,50,46,100,94,87,30.08,30.05,30.02,10,9,5,15,13,24,0.00,7,,8
2012-11-21,57,52,46,49,46,41,100,88,72,30.10,30.06,30.02,10,10,8,17,11,26,0.00,5,,7
2012-11-22,59,52,44,49,46,41,96,83,69,30.13,30.09,30.05,10,10,9,21,12,31,0.00,4,,3
2012-11-23,57,50,43,51,47,43,100,85,62,30.12,30.02,29.86,10,9,5,12,8,,0.00,0,,284
2012-11-24,55,46,36,52,33,26,87,58,40,30.10,29.96,29.85,10,10,9,21,11,22,0.00,1,,329
2012-11-25,48,40,32,39,28,24,89,61,42,30.20,30.13,30.09,10,10,10,13,8,,0.00,0,,296
2012-11-26,59,48,37,46,40,32,100,75,36,30.23,30.19,30.13,10,10,9,13,4,,0.00,0,,239
2012-11-27,60,50,39,55,46,38,100,89,44,30.21,30.17,30.11,10,9,7,8,2,,0.12,4,Rain,249
2012-11-28,51,42,34,46,38,32,100,80,50,30.39,30.27,30.16,10,8,4,16,8,22,0.00,3,Rain,2
2012-11-29,55,42,30,40,33,22,100,80,28,30.50,30.43,30.38,10,8,4,8,2,,0.00,0,,353
2012-11-30,61,47,33,42,37,32,100,80,36,30.43,30.37,30.33,10,8,2,7,1,,0.00,0,,88